Time;durP1;ratioP1;P1;durP2;ratioP2;P2;SDS_P1;SDS_P2;PMS_P1;PMS_P2;Temp;Humidity;BMP_temperature;BMP_pressure;BME280_temperature;BME280_humidity;BME280_pressure;Samples;Min_cycle;Max_cycle;Signal;HPM_P1;HPM_P2
2022/01/16 00:00:51;;;;;;;104.55;51.13;;;;;;;-6.30;100.00;93848.94;5046859;28;20102;-88
2022/01/16 00:06:02;;;;;;;108.18;48.42;;;;;;;-5.51;100.00;93949.28;5050141;28;20139;-87
2022/01/16 00:08:29;;;;;;;142.00;59.95;;;;;;;-5.59;100.00;93928.94;5048034;28;20099;-87
2022/01/16 00:10:59;;;;;;;177.73;67.97;;;;;;;-5.56;100.00;93933.72;5049550;28;20064;-89
2022/01/16 00:13:26;;;;;;;114.25;42.80;;;;;;;-5.59;100.00;93948.13;5049434;28;20404;-87
2022/01/16 00:15:53;;;;;;;84.10;35.10;;;;;;;-5.65;100.00;93960.13;5048451;28;20094;-87
2022/01/16 00:18:23;;;;;;;68.63;32.45;;;;;;;-5.64;100.00;93979.25;5048915;28;20045;-87
2022/01/16 00:20:52;;;;;;;57.63;28.40;;;;;;;-5.61;100.00;93995.78;5046523;28;20143;-87
2022/01/16 00:23:25;;;;;;;72.13;35.90;;;;;;;-5.85;100.00;93983.03;5048800;28;20207;-87
2022/01/16 00:25:53;;;;;;;78.43;39.47;;;;;;;-5.67;100.00;94027.00;5049558;28;20045;-86
2022/01/16 00:28:22;;;;;;;82.25;43.28;;;;;;;-5.65;100.00;94036.94;5048530;28;20799;-87
2022/01/16 00:30:49;;;;;;;74.90;40.17;;;;;;;-5.74;100.00;94068.28;5048253;28;20045;-88
2022/01/16 00:33:16;;;;;;;75.50;40.90;;;;;;;-5.81;100.00;94000.28;5047538;28;20057;-88
2022/01/16 00:35:49;;;;;;;90.32;46.53;;;;;;;-5.76;100.00;93917.41;5048306;28;20071;-89
2022/01/16 00:38:16;;;;;;;103.82;50.90;;;;;;;-5.71;100.00;93972.19;5049780;28;20119;-88
2022/01/16 00:40:43;;;;;;;86.22;46.30;;;;;;;-5.66;100.00;94005.25;5051996;28;20048;-87
2022/01/16 00:43:09;;;;;;;83.28;43.22;;;;;;;-5.71;100.00;93874.59;5050487;28;20535;-87
2022/01/16 00:45:38;;;;;;;76.75;39.92;;;;;;;-5.75;100.00;93858.19;5050831;28;20049;-88
2022/01/16 00:48:10;;;;;;;79.63;42.42;;;;;;;-5.78;100.00;93932.53;5050276;28;20122;-87
2022/01/16 00:50:37;;;;;;;79.53;41.58;;;;;;;-5.71;100.00;93822.03;5047976;28;20041;-88
2022/01/16 00:53:04;;;;;;;90.65;46.88;;;;;;;-5.75;100.00;93833.16;5050771;28;20045;-87
2022/01/16 00:55:33;;;;;;;105.75;52.35;;;;;;;-5.88;100.00;93836.38;5050874;28;20045;-88
2022/01/16 00:58:00;;;;;;;93.50;48.72;;;;;;;-5.82;100.00;93825.22;5048685;28;20810;-88
2022/01/16 01:00:31;;;;;;;96.03;47.33;;;;;;;-5.76;100.00;93864.88;5050805;28;20470;-88
2022/01/16 01:02:59;;;;;;;89.88;46.15;;;;;;;-5.77;100.00;93913.31;5047992;28;20076;-87
2022/01/16 01:05:26;;;;;;;83.45;44.15;;;;;;;-5.77;100.00;93916.63;5050314;28;20479;-89
2022/01/16 01:07:54;;;;;;;92.90;47.67;;;;;;;-5.80;100.00;93899.28;5050527;28;20052;-88
2022/01/16 01:10:27;;;;;;;89.15;46.10;;;;;;;-5.83;100.00;93904.47;5050685;28;20057;-88
2022/01/16 01:12:56;;;;;;;82.35;42.47;;;;;;;-5.81;100.00;93952.75;5050459;28;20041;-88
2022/01/16 01:15:40;;;;;;;;;;;;;;;;;;;;;
2022/01/16 01:18:08;;;;;;;69.80;38.07;;;;;;;-5.87;100.00;93914.75;5048081;28;20055;-88
2022/01/16 01:20:37;;;;;;;66.43;35.80;;;;;;;-5.87;100.00;93924.78;5050357;28;20052;-88
2022/01/16 01:23:04;;;;;;;62.80;35.67;;;;;;;-5.88;100.00;93898.94;5050392;28;20067;-88
2022/01/16 01:25:31;;;;;;;58.50;34.50;;;;;;;-5.87;100.00;93900.56;5050285;28;20090;-88
2022/01/16 01:28:00;;;;;;;75.78;40.35;;;;;;;-5.86;100.00;93931.38;5048020;28;20053;-89
2022/01/16 01:30:28;;;;;;;67.07;37.88;;;;;;;-5.96;100.00;93926.13;5050702;28;20060;-88
2022/01/16 01:32:56;;;;;;;61.35;34.47;;;;;;;-6.02;100.00;93912.28;5050742;28;20049;-88
2022/01/16 01:35:24;;;;;;;56.65;30.98;;;;;;;-6.00;100.00;93920.50;5050978;28;20080;-87
2022/01/16 01:37:57;;;;;;;54.50;30.90;;;;;;;-5.92;100.00;93930.84;5050601;28;20554;-87
2022/01/16 01:40:26;;;;;;;52.00;30.35;;;;;;;-5.88;100.00;93933.97;5050829;28;20439;-87
2022/01/16 01:43:17;;;;;;;54.10;28.70;;;;;;;-6.05;100.00;93930.81;5050677;28;20056;-88
2022/01/16 01:51:20;;;;;;;31.70;16.30;;;;;;;-6.10;100.00;93959.50;5050645;28;20059;-88
2022/01/16 01:53:50;;;;;;;34.45;19.20;;;;;;;-5.99;100.00;93957.13;5050961;28;20041;-88
2022/01/16 01:56:21;;;;;;;60.67;28.65;;;;;;;-6.06;100.00;93956.72;5050684;28;20052;-87
2022/01/16 01:58:47;;;;;;;53.35;27.60;;;;;;;-6.14;100.00;93943.03;5050693;28;20057;-88
2022/01/16 02:01:15;;;;;;;48.83;27.27;;;;;;;-6.07;100.00;93949.31;5050587;28;20053;-88
2022/01/16 02:03:43;;;;;;;42.78;25.30;;;;;;;-6.17;100.00;93947.34;5050407;28;20052;-89
2022/01/16 02:06:13;;;;;;;45.20;25.35;;;;;;;-6.42;100.00;93912.16;5050560;28;20056;-89
2022/01/16 02:08:45;;;;;;;45.92;25.90;;;;;;;-6.27;100.00;93935.44;5050794;28;20055;-88
2022/01/16 02:11:14;;;;;;;52.72;27.88;;;;;;;-6.10;100.00;93960.31;5050758;28;20099;-88
2022/01/16 02:13:50;;;;;;;46.60;25.77;;;;;;;-6.07;100.00;93971.81;5050958;28;20049;-88
2022/01/16 02:35:30;;;;;;;55.95;32.22;;;;;;;-6.32;100.00;93930.72;5027148;28;20282;-88
2022/01/16 02:37:57;;;;;;;54.53;29.92;;;;;;;-6.35;100.00;93914.22;5050330;28;20483;-87
2022/01/16 02:40:28;;;;;;;53.67;30.27;;;;;;;-6.38;100.00;93908.59;5050307;28;20499;-88
2022/01/16 02:42:55;;;;;;;51.03;30.92;;;;;;;-6.39;100.00;93905.28;5050274;28;20049;-86
2022/01/16 02:45:35;;;;;;;49.33;28.67;;;;;;;-6.33;100.00;93907.44;5050151;28;20053;-86
2022/01/16 02:48:05;;;;;;;51.85;31.05;;;;;;;-6.28;100.00;93916.34;5050520;28;20088;-86
2022/01/16 02:50:34;;;;;;;52.88;31.55;;;;;;;-6.64;100.00;93860.91;5050615;28;20044;-86
2022/01/16 02:53:06;;;;;;;60.22;34.08;;;;;;;-6.35;100.00;93910.94;5050432;28;20053;-86
2022/01/16 02:55:39;;;;;;;55.28;29.85;;;;;;;-6.41;100.00;93894.56;5050532;28;20064;-87
2022/01/16 02:58:06;;;;;;;50.70;28.98;;;;;;;-6.48;100.00;93885.84;5050966;28;20049;-86
2022/01/16 03:00:35;;;;;;;52.45;28.77;;;;;;;-6.36;100.00;93896.78;5049410;28;20049;-86
2022/01/16 03:03:05;;;;;;;47.95;27.50;;;;;;;-6.36;100.00;93904.28;5050271;28;20045;-86
2022/01/16 03:05:33;;;;;;;44.30;25.38;;;;;;;-6.39;100.00;93904.50;4691632;28;10009471;-86
2022/01/16 03:08:00;;;;;;;46.97;25.98;;;;;;;-6.77;100.00;93853.34;5049607;28;20059;-86
2022/01/16 03:10:51;;;;;;;46.47;25.75;;;;;;;-6.46;100.00;93904.03;5050261;28;20049;-86
2022/01/16 03:13:32;;;;;;;;;;;;;;;;;;;;;
2022/01/16 03:16:03;;;;;;;61.13;31.70;;;;;;;-6.49;100.00;93901.72;5050162;28;20049;-86
2022/01/16 03:23:59;;;;;;;62.50;33.75;;;;;;;-6.55;100.00;93894.56;5050190;28;20102;-86
2022/01/16 03:26:26;;;;;;;66.93;35.67;;;;;;;-6.52;100.00;93909.38;5050228;28;20085;-86
2022/01/16 03:28:54;;;;;;;71.75;38.05;;;;;;;-6.51;100.00;93906.81;5049955;28;20060;-86
2022/01/16 03:31:23;;;;;;;73.75;36.88;;;;;;;-6.58;100.00;93895.53;5050119;28;20064;-86
2022/01/16 03:33:50;;;;;;;67.95;36.55;;;;;;;-6.54;100.00;93904.47;5050121;28;20041;-85
2022/01/16 03:36:18;;;;;;;73.45;36.60;;;;;;;-6.61;100.00;93911.50;5050043;28;20049;-86
2022/01/16 03:38:57;;;;;;;74.20;39.60;;;;;;;-6.56;100.00;93916.25;5050285;28;20450;-86
2022/01/16 03:41:27;;;;;;;71.03;37.28;;;;;;;-6.57;100.00;93920.44;5050061;28;20053;-86
2022/01/16 03:44:03;;;;;;;55.90;30.98;;;;;;;-6.58;100.00;93928.84;5049873;28;20466;-87
2022/01/16 03:46:34;;;;;;;58.47;30.23;;;;;;;-6.67;100.00;93939.34;5049595;28;20048;-87
2022/01/16 03:49:03;;;;;;;52.30;26.83;;;;;;;-6.85;100.00;93919.50;5049518;28;20045;-87
2022/01/16 03:51:30;;;;;;;66.65;34.28;;;;;;;-6.85;100.00;93926.22;5050106;28;20107;-86
2022/01/16 03:53:57;;;;;;;118.03;57.35;;;;;;;-6.85;100.00;93943.72;5049454;28;20045;-88
2022/01/16 03:56:24;;;;;;;86.25;45.88;;;;;;;-6.90;100.00;93945.66;5049440;28;20407;-87
2022/01/16 03:58:51;;;;;;;86.25;43.58;;;;;;;-6.95;100.00;93948.38;5049815;28;20041;-86
2022/01/16 04:01:19;;;;;;;79.60;44.10;;;;;;;-7.08;100.00;93937.47;5049829;28;20103;-87
2022/01/16 04:03:48;;;;;;;78.30;42.92;;;;;;;-7.04;100.00;93946.44;5049230;28;20052;-87
2022/01/16 04:06:18;;;;;;;74.25;43.05;;;;;;;-7.00;100.00;93937.84;5049183;28;20549;-86
2022/01/16 04:08:49;;;;;;;75.50;43.00;;;;;;;-7.06;100.00;93931.53;5049672;28;20041;-87
2022/01/16 04:11:18;;;;;;;73.97;42.25;;;;;;;-7.03;100.00;93943.03;5051795;28;20048;-86
2022/01/16 04:13:51;;;;;;;71.88;40.50;;;;;;;-6.90;100.00;93953.94;5053678;28;20088;-86
2022/01/16 04:16:25;;;;;;;63.25;35.90;;;;;;;-7.03;100.00;93938.81;5053427;28;20140;-87
2022/01/16 04:18:52;;;;;;;57.85;31.38;;;;;;;-6.88;100.00;93952.19;5053068;28;20049;-87
2022/01/16 04:21:22;;;;;;;46.47;28.20;;;;;;;-6.95;100.00;93953.38;5053564;28;20068;-87
2022/01/16 04:23:50;;;;;;;104.63;50.42;;;;;;;-7.03;100.00;93958.00;5052970;28;20518;-86
2022/01/16 04:26:20;;;;;;;67.95;35.40;;;;;;;-6.95;100.00;93968.38;5052949;28;20052;-86
2022/01/16 04:28:50;;;;;;;70.60;35.28;;;;;;;-7.02;100.00;93964.63;5053060;28;20051;-86
2022/01/16 04:31:19;;;;;;;52.58;28.73;;;;;;;-6.95;100.00;93975.06;5052901;28;20056;-87
2022/01/16 04:33:49;;;;;;;39.33;22.20;;;;;;;-6.94;100.00;93975.00;5052840;28;20056;-88
2022/01/16 04:36:17;;;;;;;31.95;18.98;;;;;;;-7.01;100.00;93973.72;5052921;28;21162;-87
2022/01/16 04:38:47;;;;;;;34.83;19.92;;;;;;;-7.04;100.00;93988.88;5052915;28;20045;-86
2022/01/16 04:44:00;;;;;;;;;;;;;;;-7.09;100.00;93979.13;5052704;28;20115;-87
2022/01/16 04:46:31;;;;;;;35.15;20.70;;;;;;;-7.30;100.00;93986.09;5052248;28;19924;-87
2022/01/16 04:49:01;;;;;;;36.15;19.13;;;;;;;-7.41;100.00;93979.19;5052646;28;20060;-86
2022/01/16 04:51:29;;;;;;;33.45;18.85;;;;;;;-7.54;100.00;93954.06;5052280;28;20056;-87
2022/01/16 04:53:58;;;;;;;33.55;19.45;;;;;;;-7.31;100.00;93969.50;5051993;28;20056;-87
2022/01/16 04:56:27;;;;;;;30.23;17.08;;;;;;;-7.25;100.00;93974.16;5051980;28;20044;-86
2022/01/16 04:58:58;;;;;;;30.15;17.65;;;;;;;-7.20;100.00;93968.91;5050414;28;20045;-87
2022/01/16 05:01:25;;;;;;;32.35;15.15;;;;;;;-7.13;100.00;93975.19;5053001;28;20049;-88
2022/01/16 05:03:53;;;;;;;25.55;14.70;;;;;;;-7.08;100.00;93983.25;5052569;28;20053;-88
2022/01/16 05:06:22;;;;;;;37.60;22.58;;;;;;;-7.03;100.00;93988.78;5052442;28;20443;-86
2022/01/16 05:08:49;;;;;;;42.33;23.63;;;;;;;-7.00;100.00;93981.13;5052301;28;20045;-87
2022/01/16 05:11:21;;;;;;;42.40;25.92;;;;;;;-6.92;100.00;93982.38;5051346;28;20059;-87
2022/01/16 05:16:37;;;;;;;52.17;29.35;;;;;;;-7.00;100.00;93971.13;5044241;28;20070;-87
2022/01/16 05:19:07;;;;;;;52.38;30.02;;;;;;;-7.00;100.00;93961.16;5051762;28;20102;-88
2022/01/16 05:21:41;;;;;;;54.45;29.38;;;;;;;-6.87;100.00;93975.44;5051076;28;20052;-87
2022/01/16 05:24:11;;;;;;;51.45;31.65;;;;;;;-6.90;100.00;93973.13;5050755;28;20041;-89
2022/01/16 05:26:40;;;;;;;55.85;33.63;;;;;;;-6.90;100.00;93986.41;5049062;28;20048;-87
2022/01/16 05:29:07;;;;;;;66.03;37.58;;;;;;;-7.76;100.00;93862.91;5052870;28;20076;-87
2022/01/16 05:31:33;;;;;;;64.50;36.22;;;;;;;-6.94;100.00;93980.00;5052370;28;20056;-87
2022/01/16 05:34:04;;;;;;;52.90;31.85;;;;;;;-7.03;100.00;93988.78;5052149;28;20045;-87
2022/01/16 05:36:31;;;;;;;54.03;33.22;;;;;;;-7.09;100.00;93979.13;5052446;28;20040;-88
2022/01/16 05:38:59;;;;;;;85.55;44.75;;;;;;;-7.09;100.00;93976.63;5052563;28;20049;-87
2022/01/16 05:41:27;;;;;;;53.55;31.83;;;;;;;-7.09;100.00;93975.84;5052303;28;20053;-86
2022/01/16 05:43:55;;;;;;;47.72;27.88;;;;;;;-7.13;100.00;93972.69;5052091;28;20045;-87
2022/01/16 05:46:28;;;;;;;52.70;30.33;;;;;;;-7.29;100.00;93952.75;5052236;28;20044;-87
2022/01/16 05:48:59;;;;;;;80.40;43.10;;;;;;;-7.27;100.00;93978.44;5052205;28;20041;-87
2022/01/16 05:51:25;;;;;;;97.88;48.20;;;;;;;-7.21;100.00;93983.09;5052320;28;20060;-87
2022/01/16 05:53:52;;;;;;;63.63;35.70;;;;;;;-7.21;100.00;93982.28;5052251;28;20049;-87
2022/01/16 05:56:25;;;;;;;56.72;33.10;;;;;;;-7.21;100.00;93985.59;5052066;28;20045;-87
2022/01/16 05:58:52;;;;;;;60.05;32.03;;;;;;;-7.20;100.00;93991.38;5052085;28;20049;-87
2022/01/16 06:01:19;;;;;;;76.95;40.97;;;;;;;-7.32;100.00;93981.16;5052040;28;20049;-88
2022/01/16 06:03:47;;;;;;;66.22;36.08;;;;;;;-7.39;100.00;93982.38;5051969;28;20664;-88
2022/01/16 06:06:14;;;;;;;73.80;40.58;;;;;;;-7.36;100.00;93988.91;5051680;28;20053;-87
2022/01/16 06:08:41;;;;;;;78.95;45.17;;;;;;;-7.32;100.00;93995.34;5051774;28;20049;-88
2022/01/16 06:11:11;;;;;;;77.40;45.65;;;;;;;-7.32;100.00;93996.13;5051835;28;20053;-88
2022/01/16 06:13:42;;;;;;;69.68;38.83;;;;;;;-7.44;100.00;93985.13;5051596;28;20120;-87
2022/01/16 06:16:10;;;;;;;76.25;41.03;;;;;;;-7.42;100.00;93995.84;5051797;28;20049;-88
2022/01/16 06:18:41;;;;;;;66.45;38.55;;;;;;;-7.44;100.00;93999.28;5051824;28;20072;-87
2022/01/16 06:21:10;;;;;;;80.75;43.80;;;;;;;-7.43;100.00;94000.91;5051389;28;20045;-87
2022/01/16 06:23:39;;;;;;;91.82;50.42;;;;;;;-7.46;100.00;93976.13;5051571;28;20060;-88
2022/01/16 06:26:07;;;;;;;98.13;52.85;;;;;;;-7.31;100.00;93996.97;5051442;28;20114;-87
2022/01/16 06:28:47;;;;;;;118.00;67.53;;;;;;;-7.38;100.00;94002.28;5051598;28;20061;-88
2022/01/16 06:31:15;;;;;;;144.18;83.45;;;;;;;-7.36;100.00;94013.88;5051955;28;20048;-87
2022/01/16 06:33:46;;;;;;;131.60;73.28;;;;;;;-7.26;100.00;94010.78;5050993;28;20068;-88
2022/01/16 06:36:13;;;;;;;127.18;69.78;;;;;;;-7.09;100.00;94023.28;5050880;28;20132;-87
2022/01/16 06:38:41;;;;;;;117.57;66.00;;;;;;;-7.03;100.00;94025.44;5051171;28;20045;-88
2022/01/16 06:41:08;;;;;;;119.15;64.05;;;;;;;-7.02;100.00;94022.88;5051699;28;20044;-88
2022/01/16 06:43:41;;;;;;;116.72;70.20;;;;;;;-6.95;100.00;94025.81;5051325;28;20048;-87
2022/01/16 06:46:08;;;;;;;104.80;60.63;;;;;;;-7.02;100.00;94022.88;5051232;28;20072;-87
2022/01/16 06:48:36;;;;;;;111.07;63.30;;;;;;;-7.05;100.00;94005.53;5051444;28;20049;-88
2022/01/16 06:51:15;;;;;;;;;;;;;;;;;;;;;
2022/01/16 06:53:48;;;;;;;98.15;59.95;;;;;;;-6.82;100.00;94022.69;5051145;28;20052;-88
2022/01/16 06:56:15;;;;;;;105.82;62.30;;;;;;;-6.76;100.00;94024.84;5051103;28;20438;-88
2022/01/16 06:58:45;;;;;;;109.13;63.63;;;;;;;-6.69;100.00;94035.28;5050949;28;20045;-88
2022/01/16 07:01:14;;;;;;;119.55;69.43;;;;;;;-6.61;100.00;94035.69;5050827;28;20053;-88
2022/01/16 07:03:42;;;;;;;119.15;70.32;;;;;;;-6.52;100.00;94031.88;5050868;28;20045;-88
2022/01/16 07:06:09;;;;;;;130.70;75.22;;;;;;;-6.58;100.00;94018.81;5050961;28;20052;-88
2022/01/16 07:08:37;;;;;;;125.43;76.20;;;;;;;-6.36;100.00;94050.13;5050745;28;20052;-88
2022/01/16 07:11:07;;;;;;;120.22;75.55;;;;;;;-6.28;100.00;94047.19;5050710;28;20087;-89
2022/01/16 07:13:36;;;;;;;104.18;60.33;;;;;;;-6.13;100.00;94043.00;5050908;28;20055;-88
2022/01/16 07:16:02;;;;;;;89.93;53.55;;;;;;;-6.31;100.00;93999.84;5050580;28;20048;-88
2022/01/16 07:18:31;;;;;;;87.38;51.55;;;;;;;-5.84;100.00;94048.00;5051093;28;20107;-88
2022/01/16 07:20:59;;;;;;;77.22;46.15;;;;;;;-5.91;100.00;94006.72;5050527;28;20055;-88
2022/01/16 07:23:56;;;;;;;77.78;44.15;;;;;;;-5.74;100.00;94019.94;5052818;28;20483;-88
2022/01/16 07:26:28;;;;;;;70.80;44.53;;;;;;;-5.59;100.00;94024.03;5051897;28;20160;-90
2022/01/16 07:28:56;;;;;;;119.75;69.30;;;;;;;-5.26;100.00;94040.44;5050857;28;20049;-88
2022/01/16 07:31:29;;;;;;;71.65;41.08;;;;;;;-5.36;100.00;94004.34;5050644;28;20049;-90
2022/01/16 07:34:00;;;;;;;68.88;41.75;;;;;;;-4.86;100.00;94049.72;5050452;28;20106;-89
2022/01/16 07:36:28;;;;;;;77.40;44.50;;;;;;;-4.70;100.00;94041.25;5050479;28;20045;-90
2022/01/16 07:38:56;;;;;;;69.63;39.63;;;;;;;-4.66;100.00;94029.31;5050241;28;20447;-90
2022/01/16 07:41:28;;;;;;;59.53;34.97;;;;;;;-4.42;100.00;94057.06;5050692;28;20048;-92
2022/01/16 07:44:00;;;;;;;79.63;45.75;;;;;;;-4.51;100.00;94030.06;5050750;28;20113;-90
2022/01/16 07:46:40;;;;;;;;;;;;;;;;;;;;;
2022/01/16 07:49:09;;;;;;;85.95;50.65;;;;;;;-4.02;100.00;94049.47;5047463;28;20063;-91
2022/01/16 07:51:39;;;;;;;87.05;52.58;;;;;;;-3.79;100.00;94054.69;5054239;28;20496;-91
2022/01/16 07:54:10;;;;;;;65.75;41.20;;;;;;;-3.54;100.00;94058.13;5054359;28;20064;-91
2022/01/16 07:56:48;;;;;;;57.13;36.50;;;;;;;-3.37;100.00;94067.00;5054359;28;20040;-91
2022/01/16 07:59:20;;;;;;;74.00;43.38;;;;;;;-3.32;100.00;94051.66;5054149;28;20049;-91
2022/01/16 08:01:50;;;;;;;82.45;52.03;;;;;;;-3.11;100.00;94063.63;5054293;28;20404;-91
2022/01/16 08:04:18;;;;;;;73.88;45.85;;;;;;;-2.95;100.00;94060.91;5054082;28;20045;-90
2022/01/16 08:06:50;;;;;;;86.47;50.47;;;;;;;-2.73;100.00;94062.72;5054477;28;20064;-92
2022/01/16 08:09:17;;;;;;;67.57;43.67;;;;;;;-2.77;100.00;94036.19;5052719;28;20423;-91
2022/01/16 08:11:51;;;;;;;56.97;34.65;;;;;;;-2.62;100.00;94041.03;5054266;28;20052;-92
2022/01/16 08:14:20;;;;;;;57.00;35.08;;;;;;;-2.45;100.00;94044.88;5054064;28;20076;-92
2022/01/16 08:16:50;;;;;;;50.13;29.88;;;;;;;-2.30;100.00;94055.56;5056797;28;20083;-90
2022/01/16 08:19:17;;;;;;;32.95;21.65;;;;;;;-2.39;100.00;94031.88;5055046;28;20049;-90
2022/01/16 08:21:47;;;;;;;34.78;20.63;;;;;;;-2.20;100.00;94053.19;5054056;28;20068;-92
2022/01/16 08:24:15;;;;;;;38.15;22.45;;;;;;;-2.04;100.00;94058.72;5054556;28;20049;-92
2022/01/16 08:26:42;;;;;;;25.90;15.80;;;;;;;-1.95;100.00;94048.91;5053834;28;20056;-91
2022/01/16 08:29:08;;;;;;;38.22;24.33;;;;;;;-1.80;100.00;94046.97;5053709;28;20462;-91
2022/01/16 08:31:59;;;;;;;55.20;33.83;;;;;;;-1.74;100.00;94046.50;5053500;28;20479;-91
2022/01/16 08:34:28;;;;;;;51.78;32.65;;;;;;;-1.62;100.00;94053.16;5012516;28;20099;-91
2022/01/16 08:36:56;;;;;;;33.97;23.10;;;;;;;-1.46;100.00;94046.16;5053659;28;20076;-92
2022/01/16 10:17:19;;;;;;;20.27;11.82;;;;;;;0.29;100.00;93961.00;4695237;30;20092;-88
2022/01/16 10:27:11;;;;;;;33.97;15.20;;;;;;;-0.63;100.00;93811.94;4816430;29;20057;-85
2022/01/16 10:29:51;;;;;;;28.30;16.33;;;;;;;-0.27;100.00;93819.91;4893992;29;20057;-87
2022/01/16 10:32:22;;;;;;;19.45;11.05;;;;;;;0.68;100.00;93954.47;4941461;29;20494;-86
2022/01/16 10:34:55;;;;;;;16.20;10.82;;;;;;;0.84;100.00;93944.66;4963012;28;20050;-87
2022/01/16 10:37:26;;;;;;;20.52;11.07;;;;;;;0.81;100.00;93929.72;4970343;28;20109;-87
2022/01/16 10:39:56;;;;;;;24.27;12.95;;;;;;;0.96;98.89;93937.72;4970296;28;20047;-86
2022/01/16 10:42:23;;;;;;;25.05;15.15;;;;;;;1.00;100.00;93923.88;4970190;28;20050;-85
2022/01/16 10:44:59;;;;;;;76.47;36.75;;;;;;;1.36;100.00;93935.16;4970365;28;20054;-86
2022/01/16 10:47:29;;;;;;;;;;;;;;;1.52;97.57;93935.41;4970628;28;20129;-85
2022/01/16 10:50:11;;;;;;;25.55;14.23;;;;;;;1.39;94.83;93922.25;4970282;28;19968;-86
2022/01/16 10:52:56;;;;;;;24.75;13.60;;;;;;;1.43;97.61;93914.25;5051007;28;20048;-85
2022/01/16 10:55:25;;;;;;;24.75;15.15;;;;;;;1.65;100.00;93921.66;5051127;28;20499;-86
2022/01/16 10:58:01;;;;;;;27.38;15.85;;;;;;;1.73;100.00;93912.44;5051165;28;20136;-85
2022/01/16 11:00:28;;;;;;;27.42;16.20;;;;;;;1.89;100.00;93908.53;5050869;28;20041;-87
2022/01/16 11:02:59;;;;;;;27.05;15.32;;;;;;;1.98;96.10;93909.44;5050899;28;20045;-86
2022/01/16 11:05:28;;;;;;;23.45;14.70;;;;;;;1.98;93.38;93901.81;5050710;28;20056;-86
2022/01/16 11:08:01;;;;;;;23.23;13.35;;;;;;;2.17;97.07;93897.63;5050825;28;20088;-85
2022/01/16 11:10:31;;;;;;;23.48;13.30;;;;;;;2.25;90.77;93910.38;5050750;28;20045;-85
2022/01/16 11:13:00;;;;;;;24.80;13.90;;;;;;;2.06;94.04;93853.78;5050769;28;20514;-84
2022/01/16 11:15:28;;;;;;;23.65;12.45;;;;;;;2.36;93.06;93879.00;5050720;28;20442;-85
2022/01/16 11:17:56;;;;;;;35.80;20.10;;;;;;;2.60;93.44;93895.41;5050688;28;20488;-85
2022/01/16 11:20:29;;;;;;;23.45;12.43;;;;;;;2.37;87.62;93899.13;5050198;28;20045;-84
2022/01/16 11:23:06;;;;;;;21.08;11.95;;;;;;;2.37;86.84;93894.03;5050833;28;20052;-83
2022/01/16 11:25:36;;;;;;;21.92;12.80;;;;;;;2.59;93.92;93883.66;5050685;28;20111;-84
2022/01/16 11:28:05;;;;;;;26.63;13.30;;;;;;;2.64;85.43;93887.34;5050562;28;20067;-85
2022/01/16 11:30:36;;;;;;;27.05;14.10;;;;;;;2.74;88.89;93882.19;5050607;28;20465;-85
2022/01/16 11:33:05;;;;;;;24.98;12.48;;;;;;;2.72;80.29;93878.25;5050706;28;20049;-86
2022/01/16 11:35:36;;;;;;;31.05;16.52;;;;;;;2.86;85.62;93876.94;5050381;28;20056;-85
2022/01/16 11:38:04;;;;;;;78.55;40.03;;;;;;;2.97;81.39;93884.31;5050454;28;20049;-86
2022/01/16 11:40:42;;;;;;;74.55;38.90;;;;;;;2.94;76.37;93874.44;5050474;28;20455;-85
2022/01/16 11:43:23;;;;;;;28.20;14.18;;;;;;;3.20;81.90;93864.34;5050703;28;20053;-85
2022/01/16 11:45:54;;;;;;;13.00;6.75;;;;;;;3.41;78.32;93875.09;5050484;28;20110;-85
2022/01/16 11:48:40;;;;;;;45.78;13.95;;;;;;;3.57;75.92;93884.59;5050412;28;20117;-86
2022/01/16 11:51:28;;;;;;;29.05;11.68;;;;;;;3.71;75.29;93886.56;5050271;28;20059;-85
2022/01/16 11:54:07;;;;;;;22.95;10.15;;;;;;;3.82;74.91;93885.53;5048918;28;20075;-85
2022/01/16 11:57:03;;;;;;;14.48;7.97;;;;;;;3.93;72.74;93879.38;5050423;28;20051;-85
2022/01/16 11:59:38;;;;;;;29.33;17.38;;;;;;;3.93;74.58;93864.13;5050210;28;20068;-85
2022/01/16 12:02:20;;;;;;;12.02;5.97;;;;;;;3.90;72.14;93859.34;5050488;28;20110;-86
2022/01/16 12:05:02;;;;;;;12.25;6.88;;;;;;;4.02;72.46;93864.94;5050320;28;20052;-84
2022/01/16 12:07:55;;;;;;;12.80;6.78;;;;;;;4.10;72.03;93864.19;5050687;28;20111;-85
2022/01/16 12:10:42;;;;;;;10.82;5.20;;;;;;;4.10;71.40;93859.09;5050190;28;20609;-84
2022/01/16 12:13:42;;;;;;;10.63;6.05;;;;;;;4.06;71.05;93855.25;5050195;28;20476;-85
2022/01/16 12:16:35;;;;;;;13.48;8.43;;;;;;;4.05;69.95;93859.56;5035554;28;20056;-84
2022/01/16 12:19:42;;;;;;;12.75;6.43;;;;;;;4.13;69.24;93857.03;5030882;28;20060;-84
2022/01/16 12:22:14;;;;;;;18.40;11.95;;;;;;;4.10;68.31;93854.00;5049772;28;20049;-84
2022/01/16 12:24:43;;;;;;;17.02;10.02;;;;;;;4.12;68.12;93850.38;5049637;28;20049;-84
2022/01/16 12:27:39;;;;;;;13.05;8.50;;;;;;;4.17;68.78;93847.34;5049182;28;20045;-85
2022/01/16 12:30:24;;;;;;;9.90;5.90;;;;;;;4.16;68.76;93848.31;5048291;28;20049;-84
2022/01/16 12:32:54;;;;;;;11.82;6.47;;;;;;;4.11;68.90;93847.97;5035689;28;20691;-84
2022/01/16 12:36:10;;;;;;;16.55;8.77;;;;;;;4.07;67.93;93844.94;5049162;28;20541;-85
2022/01/16 12:39:00;;;;;;;11.07;4.97;;;;;;;4.12;67.26;93847.81;5049249;28;20404;-84
2022/01/16 12:41:30;;;;;;;11.15;6.43;;;;;;;4.15;65.98;93846.72;5049271;28;20053;-85
2022/01/16 12:44:00;;;;;;;11.93;6.28;;;;;;;4.06;67.23;93829.84;5052763;28;20049;-86
2022/01/16 12:46:38;;;;;;;10.57;5.35;;;;;;;4.19;64.02;93839.56;5049884;28;20099;-86
2022/01/16 12:49:07;;;;;;;15.35;7.88;;;;;;;4.18;64.78;93832.91;5047625;28;20048;-84
2022/01/16 12:51:36;;;;;;;48.25;30.30;;;;;;;4.20;65.86;93839.44;5050435;28;20072;-85
2022/01/16 12:54:07;;;;;;;17.80;10.55;;;;;;;4.17;65.87;93837.19;5049381;28;20071;-86
2022/01/16 12:56:37;;;;;;;10.77;4.93;;;;;;;4.20;63.82;93831.00;5046731;28;20049;-85
2022/01/16 12:59:11;;;;;;;34.55;16.70;;;;;;;4.23;62.16;93839.13;5044535;28;20099;-87
2022/01/16 13:01:43;;;;;;;17.92;9.98;;;;;;;4.21;63.73;93830.84;5048973;28;20045;-85
2022/01/16 13:04:20;;;;;;;12.30;6.72;;;;;;;4.17;62.50;93829.56;5052534;28;20055;-85
2022/01/16 13:06:47;;;;;;;13.15;7.28;;;;;;;4.15;65.43;93828.94;5052300;28;20047;-86
2022/01/16 13:09:16;;;;;;;8.73;5.70;;;;;;;4.19;62.14;93827.69;5051084;28;20553;-84
2022/01/16 13:11:46;;;;;;;19.80;12.02;;;;;;;4.16;60.23;93827.19;5048371;28;20102;-85
2022/01/16 13:14:15;;;;;;;33.85;17.60;;;;;;;4.16;62.37;93827.19;5049930;28;20102;-84
2022/01/16 13:16:45;;;;;;;13.70;6.90;;;;;;;4.16;60.89;93830.50;5047818;28;20408;-85
2022/01/16 13:19:16;;;;;;;15.18;7.93;;;;;;;4.02;62.42;93816.66;5044661;28;20060;-85
2022/01/16 13:21:47;;;;;;;23.77;14.50;;;;;;;4.16;62.52;93827.19;5047124;28;20051;-85
2022/01/16 13:24:41;;;;;;;10.55;6.05;;;;;;;3.97;63.27;93801.88;5048942;28;20594;-87
2022/01/16 13:27:11;;;;;;;12.63;7.03;;;;;;;4.04;62.43;93824.13;5050051;28;20454;-86
2022/01/16 13:29:40;;;;;;;12.18;6.97;;;;;;;3.70;62.96;93785.88;5049681;28;20052;-84
2022/01/16 13:32:12;;;;;;;16.42;8.65;;;;;;;3.74;60.84;93807.50;5048141;28;20048;-85
2022/01/16 13:34:45;;;;;;;15.13;8.10;;;;;;;3.85;59.85;93808.19;5048828;28;20056;-84
2022/01/16 13:37:22;;;;;;;13.32;6.38;;;;;;;3.92;60.79;93829.50;5049128;28;20094;-86
2022/01/16 13:39:52;;;;;;;13.35;6.88;;;;;;;3.98;60.63;93826.31;5045660;28;20566;-85
2022/01/16 13:42:31;;;;;;;11.02;6.00;;;;;;;3.93;59.52;93815.03;5048500;28;20049;-84
2022/01/16 13:45:18;;;;;;;32.60;18.52;;;;;;;4.05;58.72;93825.72;5047423;28;20059;-85
2022/01/16 13:48:07;;;;;;;16.50;9.57;;;;;;;3.95;60.08;93810.59;5049294;28;20045;-84
2022/01/16 13:50:39;;;;;;;29.73;14.18;;;;;;;3.94;59.71;93812.31;5046759;28;20064;-85
2022/01/16 13:53:09;;;;;;;13.43;7.93;;;;;;;3.96;58.05;93825.69;5050081;28;20049;-84
2022/01/16 13:55:52;;;;;;;21.35;10.43;;;;;;;3.90;58.80;93805.97;5047364;28;20503;-85
2022/01/16 13:58:21;;;;;;;26.90;12.23;;;;;;;3.96;59.55;93814.72;5049102;28;20045;-84
2022/01/16 14:00:48;;;;;;;30.80;15.32;;;;;;;3.93;58.55;93817.59;5049398;28;20152;-84
2022/01/16 14:03:18;;;;;;;32.03;13.90;;;;;;;3.94;59.29;93814.09;5048810;28;20056;-85